Nearby METAR Reports

 

KSJC - San Jose, California, USA
Distance from station: NE 14km
Updated: 22/06/2018 22:53
Few Clouds
Few Clouds
 Wind from WNW
Wind: WNW 15 km/h
Temperature: 28°C
Dew Point: 11°C
Humidity: 35%
Barometer: 1009.5 hPa
Clouds: Few Clouds
Visibility: 16 km
Cloud details: Few Clouds 610 m
2018/06/23 01:53 KSJC 230153Z 29008KT 10SM FEW020 28/11 A2981 RMK AO2 SLP093 FU FEW020 T02830111 $
KNUQ - Moffett Nas/Mtn, California, USA
Distance from station: N 14km
Updated: 22/06/2018 22:56
Clear
Clear
 Wind from NNW
Wind: NNW 15 km/h
Temperature: 23°C
Dew Point: 14°C
Humidity: 57%
Barometer: 1009.8 hPa
Clouds: Clear
Visibility: 16 km
2018/06/23 01:56 KNUQ 230156Z 33008KT 10SM CLR 23/14 A2982 RMK AO2 SLP101 T02280139
 
KPAO - Palo Alto, California, USA
Distance from station: NNW 23km
Updated: 22/06/2018 22:47
Clear
Clear
 Wind from NW
Wind: NW 20 km/h
Temperature: 22°C
Dew Point: 16°C
Humidity: 69%
Barometer: 1009.5 hPa
Clouds: Clear
Visibility: 16 km
2018/06/23 01:47 KPAO 230147Z 32011KT 10SM SKC 22/16 A2981
KRHV - San Jose/Reid, California, USA
Distance from station: ENE 19km
Updated: 22/06/2018 22:47
Clear
Clear
 Wind from NW
Wind: NW 19 km/h
Temperature: 31°C
Dew Point: 11°C
Humidity: 29%
Barometer: 1008.8 hPa
Clouds: Clear
Visibility: 16 km
2018/06/23 01:47 KRHV 230147Z 31010KT 10SM SKC 31/11 A2979
 
KOAK - Oakland, California, USA
Distance from station: NNW 50km
Updated: 22/06/2018 22:53
Clear
Clear
 Wind from W
Wind: W 22 km/h
Temperature: 20°C
Dew Point: 13°C
Humidity: 64%
Barometer: 1009.8 hPa
Clouds: Clear
Visibility: 16 km
2018/06/23 01:53 KOAK 230153Z 27012KT 10SM CLR 20/13 A2982 RMK AO2 SLP098 T02000128
KSQL - San Carlos Airpo, California, USA
Distance from station: NW 34km
Updated: 22/06/2018 22:47
Clear
Clear
 Wind from W
Wind: W 13 km/h
Temperature: 29°C
Dew Point: 7°C
Humidity: 25%
Barometer: 1009.1 hPa
Clouds: Clear
Visibility: 16 km
2018/06/23 01:47 KSQL 230147Z 28007KT 10SM SKC 29/07 A2980
 
KSFO - San Francisco, California, USA
Distance from station: NW 49km
Updated: 22/06/2018 22:56
Few Clouds
Few Clouds
 Wind from WNW
Wind: WNW 30 km/h
Temperature: 19°C
Dew Point: 10°C
Humidity: 56%
Barometer: 1009.8 hPa
Clouds: Few Clouds
Visibility: 16 km
Cloud details: Few Clouds 6096 m
2018/06/23 01:56 KSFO 230156Z 29016KT 10SM FEW200 19/10 A2982 RMK AO2 SLP096 T01940100 $
KE16 - San Martin, California, USA
Distance from station: ESE 43km
Updated: 22/06/2018 21:00
NOT Current
Clear
Clear
 Wind from NW
Wind: NW 22 km/h, Gust: 37 km/h
Temperature: 34°C
Dew Point: 8°C
Humidity: 20%
Barometer: 1009.8 hPa
Clouds: Clear
Visibility: 16 km
2018/06/23 00:00 KE16 230000Z AUTO 31012G20KT 10SM CLR 34/08 A2982 RMK AO2
 
KWVI - Watsonville, California, USA
Distance from station: SSE 44km
Updated: 22/06/2018 22:53
Clear
Clear
 Wind from SE
Wind: SE 11 km/h
Temperature: 17°C
Dew Point: 12°C
Humidity: 73%
Barometer: 1010.8 hPa
Clouds: Clear
Visibility: 11 km
2018/06/23 01:53 KWVI 230153Z AUTO 14006KT 7SM CLR 17/12 A2985 RMK AO2 SLPNO T01720122 $
KHAF - Half Moon Bay, California, USA
Distance from station: WNW 50km
Updated: 22/06/2018 23:20
Haze, Clear
Haze, Clear
 Wind from NW
Wind: NW 15 km/h
Temperature: 15°C
Dew Point: 11°C
Humidity: 77%
Barometer: 1011.9 hPa
Summary: Haze
Clouds: Clear
Visibility: 8 km
2018/06/23 02:20 KHAF 230220Z AUTO 32008KT 5SM HZ CLR 15/11 A2988 RMK AO2
 
KHWD - Hayward, California, USA
Distance from station: N 44km
Updated: 22/06/2018 22:54
Clear
Clear
 Wind from W
Wind: W 15 km/h
Temperature: 22°C
Dew Point: 13°C
Humidity: 57%
Barometer: 1009.8 hPa
Clouds: Clear
Visibility: 16 km
2018/06/23 01:54 KHWD 230154Z 26008KT 10SM CLR 22/13 A2982 RMK AO2 SLP106 T02170133
KLVK - Livermore, California, USA
Distance from station: NNE 51km
Updated: 22/06/2018 22:53
Clear
Clear
 Wind from W
Wind: W 24 km/h
Temperature: 32°C
Dew Point: 9°C
Humidity: 24%
Barometer: 1008.8 hPa
Clouds: Clear
Visibility: 16 km
2018/06/23 01:53 KLVK 230153Z 27013KT 10SM CLR 32/09 A2979 RMK AO2 SLP083 T03220094